sensor_id;sensor_type;location;lat;lon;timestamp;pressure;altitude;pressure_sealevel;temperature;humidity
78932;BME280;68331;53.362;55.932;2023-04-06T00:02:02;99625.84;;;4.99;56.21
78932;BME280;68331;53.362;55.932;2023-04-06T00:04:28;99623.25;;;4.98;56.42
78932;BME280;68331;53.362;55.932;2023-04-06T00:06:54;99622.44;;;4.93;56.37
78932;BME280;68331;53.362;55.932;2023-04-06T00:09:19;99625.09;;;4.89;56.65
78932;BME280;68331;53.362;55.932;2023-04-06T00:11:46;99629.44;;;4.90;56.41
78932;BME280;68331;53.362;55.932;2023-04-06T00:14:11;99625.03;;;4.94;56.59
78932;BME280;68331;53.362;55.932;2023-04-06T00:16:37;99625.03;;;4.94;56.29
78932;BME280;68331;53.362;55.932;2023-04-06T00:19:03;99621.50;;;4.97;56.48
78932;BME280;68331;53.362;55.932;2023-04-06T00:21:29;99618.00;;;4.98;56.42
78932;BME280;68331;53.362;55.932;2023-04-06T00:23:56;99618.06;;;4.95;56.28
78932;BME280;68331;53.362;55.932;2023-04-06T00:26:23;99619.84;;;4.93;56.65
78932;BME280;68331;53.362;55.932;2023-04-06T00:28:49;99614.69;;;4.86;56.52
78932;BME280;68331;53.362;55.932;2023-04-06T00:31:17;99605.22;;;4.75;56.88
78932;BME280;68331;53.362;55.932;2023-04-06T00:33:43;99600.13;;;4.65;57.24
78932;BME280;68331;53.362;55.932;2023-04-06T00:36:09;99586.38;;;4.51;57.18
78932;BME280;68331;53.362;55.932;2023-04-06T00:38:35;99597.63;;;4.56;57.41
78932;BME280;68331;53.362;55.932;2023-04-06T00:41:03;99596.78;;;4.54;57.22
78932;BME280;68331;53.362;55.932;2023-04-06T00:43:29;99604.53;;;4.59;57.36
78932;BME280;68331;53.362;55.932;2023-04-06T00:45:55;99599.34;;;4.57;57.23
78932;BME280;68331;53.362;55.932;2023-04-06T00:48:21;99597.53;;;4.64;56.98
78932;BME280;68331;53.362;55.932;2023-04-06T00:50:47;99607.13;;;4.63;57.12
78932;BME280;68331;53.362;55.932;2023-04-06T00:53:13;99599.28;;;4.63;57.11
78932;BME280;68331;53.362;55.932;2023-04-06T00:55:40;99604.50;;;4.63;57.17
78932;BME280;68331;53.362;55.932;2023-04-06T00:58:06;99601.03;;;4.63;56.99
78932;BME280;68331;53.362;55.932;2023-04-06T01:00:43;99599.31;;;4.59;57.11
78932;BME280;68331;53.362;55.932;2023-04-06T01:03:14;99595.03;;;4.56;57.14
78932;BME280;68331;53.362;55.932;2023-04-06T01:05:42;99595.94;;;4.51;57.62
78932;BME280;68331;53.362;55.932;2023-04-06T01:08:18;99598.66;;;4.40;57.59
78932;BME280;68331;53.362;55.932;2023-04-06T01:10:45;99597.03;;;4.30;57.98
78932;BME280;68331;53.362;55.932;2023-04-06T01:13:23;99600.56;;;4.26;58.23
78932;BME280;68331;53.362;55.932;2023-04-06T01:15:53;99605.75;;;4.29;58.15
78932;BME280;68331;53.362;55.932;2023-04-06T01:18:39;99609.16;;;4.34;58.06
78932;BME280;68331;53.362;55.932;2023-04-06T01:21:16;99617.03;;;4.32;57.84
78932;BME280;68331;53.362;55.932;2023-04-06T01:24:21;99619.63;;;4.35;57.58
78932;BME280;68331;53.362;55.932;2023-04-06T01:26:59;99616.13;;;4.36;57.37
78932;BME280;68331;53.362;55.932;2023-04-06T01:29:33;99611.81;;;4.32;57.70
78932;BME280;68331;53.362;55.932;2023-04-06T01:32:00;99614.50;;;4.23;57.80
78932;BME280;68331;53.362;55.932;2023-04-06T01:34:28;99617.22;;;4.14;58.27
78932;BME280;68331;53.362;55.932;2023-04-06T01:36:58;99617.22;;;4.14;58.29
78932;BME280;68331;53.362;55.932;2023-04-06T01:39:27;99617.22;;;4.14;58.29
78932;BME280;68331;53.362;55.932;2023-04-06T01:41:53;99617.19;;;4.17;58.19
78932;BME280;68331;53.362;55.932;2023-04-06T01:44:21;99618.00;;;4.20;58.18
78932;BME280;68331;53.362;55.932;2023-04-06T01:46:53;99611.88;;;4.26;57.96
78932;BME280;68331;53.362;55.932;2023-04-06T01:49:19;99608.34;;;4.30;57.65
78932;BME280;68331;53.362;55.932;2023-04-06T01:51:50;99608.25;;;4.39;57.57
78932;BME280;68331;53.362;55.932;2023-04-06T01:54:16;99615.13;;;4.47;57.50
78932;BME280;68331;53.362;55.932;2023-04-06T01:56:53;99620.25;;;4.57;57.44
78932;BME280;68331;53.362;55.932;2023-04-06T01:59:30;99613.25;;;4.61;57.40
78932;BME280;68331;53.362;55.932;2023-04-06T02:01:58;99607.19;;;4.56;57.43
78932;BME280;68331;53.362;55.932;2023-04-06T02:04:25;99604.50;;;4.62;57.29
78932;BME280;68331;53.362;55.932;2023-04-06T02:06:59;99604.59;;;4.56;57.52
78932;BME280;68331;53.362;55.932;2023-04-06T02:09:28;99608.75;;;4.72;57.29
78932;BME280;68331;53.362;55.932;2023-04-06T02:11:53;99604.34;;;4.77;57.32
78932;BME280;68331;53.362;55.932;2023-04-06T02:14:19;99601.69;;;4.82;57.22
78932;BME280;68331;53.362;55.932;2023-04-06T02:16:50;99606.03;;;4.81;56.92
78932;BME280;68331;53.362;55.932;2023-04-06T02:19:16;99609.53;;;4.80;56.98
78932;BME280;68331;53.362;55.932;2023-04-06T02:21:42;99607.75;;;4.85;57.17
78932;BME280;68331;53.362;55.932;2023-04-06T02:24:08;99610.19;;;4.96;56.99
78932;BME280;68331;53.362;55.932;2023-04-06T02:26:35;99610.09;;;5.04;56.68
78932;BME280;68331;53.362;55.932;2023-04-06T02:29:01;99608.25;;;5.12;56.66
78932;BME280;68331;53.362;55.932;2023-04-06T02:31:27;99601.91;;;5.28;56.14
78932;BME280;68331;53.362;55.932;2023-04-06T02:33:53;99610.41;;;5.46;55.58
78932;BME280;68331;53.362;55.932;2023-04-06T02:36:20;99609.13;;;5.71;55.20
78932;BME280;68331;53.362;55.932;2023-04-06T02:38:46;99606.03;;;6.02;54.21
78932;BME280;68331;53.362;55.932;2023-04-06T02:41:12;99608.97;;;6.33;53.56
78932;BME280;68331;53.362;55.932;2023-04-06T02:43:38;99616.06;;;6.73;52.42
78932;BME280;68331;53.362;55.932;2023-04-06T02:46:17;99608.53;;;6.99;51.33
78932;BME280;68331;53.362;55.932;2023-04-06T02:48:43;99611.25;;;7.35;50.27
78932;BME280;68331;53.362;55.932;2023-04-06T02:51:09;99617.88;;;7.52;49.74
78932;BME280;68331;53.362;55.932;2023-04-06T02:53:36;99614.53;;;7.45;49.87
78932;BME280;68331;53.362;55.932;2023-04-06T02:56:02;99621.06;;;7.66;49.47
78932;BME280;68331;53.362;55.932;2023-04-06T02:58:39;99609.50;;;7.72;48.91
78932;BME280;68331;53.362;55.932;2023-04-06T03:01:06;99623.09;;;7.53;49.27
78932;BME280;68331;53.362;55.932;2023-04-06T03:03:32;99621.59;;;7.41;49.94
78932;BME280;68331;53.362;55.932;2023-04-06T03:05:58;99619.25;;;7.29;50.23
78932;BME280;68331;53.362;55.932;2023-04-06T03:08:29;99625.13;;;7.40;50.34
78932;BME280;68331;53.362;55.932;2023-04-06T03:10:55;99623.03;;;7.56;50.03
78932;BME280;68331;53.362;55.932;2023-04-06T03:13:25;99624.59;;;7.63;49.65
78932;BME280;68331;53.362;55.932;2023-04-06T03:15:55;99624.59;;;7.63;49.32
78932;BME280;68331;53.362;55.932;2023-04-06T03:18:22;99621.75;;;7.73;49.21
78932;BME280;68331;53.362;55.932;2023-04-06T03:20:50;99622.97;;;7.95;48.61
78932;BME280;68331;53.362;55.932;2023-04-06T03:23:18;99621.44;;;8.21;47.97
78932;BME280;68331;53.362;55.932;2023-04-06T03:25:49;99614.84;;;8.40;48.02
78932;BME280;68331;53.362;55.932;2023-04-06T03:28:18;99618.63;;;8.61;47.78
78932;BME280;68331;53.362;55.932;2023-04-06T03:30:52;99608.34;;;8.84;47.33
78932;BME280;68331;53.362;55.932;2023-04-06T03:33:29;99618.44;;;9.29;46.10
78932;BME280;68331;53.362;55.932;2023-04-06T03:35:56;99621.25;;;9.51;45.58
78932;BME280;68331;53.362;55.932;2023-04-06T03:38:24;99622.53;;;9.66;44.96
78932;BME280;68331;53.362;55.932;2023-04-06T03:40:50;99615.94;;;9.53;45.07
78932;BME280;68331;53.362;55.932;2023-04-06T03:43:20;99605.53;;;9.20;45.83
78932;BME280;68331;53.362;55.932;2023-04-06T03:45:46;99608.66;;;9.33;45.67
78932;BME280;68331;53.362;55.932;2023-04-06T03:48:13;99609.16;;;10.25;44.26
78932;BME280;68331;53.362;55.932;2023-04-06T03:50:39;99607.72;;;10.92;42.69
78932;BME280;68331;53.362;55.932;2023-04-06T03:53:05;99607.94;;;11.09;41.95
78932;BME280;68331;53.362;55.932;2023-04-06T03:55:31;99613.88;;;10.67;42.86
78932;BME280;68331;53.362;55.932;2023-04-06T03:57:57;99609.97;;;10.29;43.83
78932;BME280;68331;53.362;55.932;2023-04-06T04:00:24;99610.72;;;10.81;42.47
78932;BME280;68331;53.362;55.932;2023-04-06T04:02:50;99609.22;;;11.90;40.69
78932;BME280;68331;53.362;55.932;2023-04-06T04:05:16;99609.53;;;13.43;37.64
78932;BME280;68331;53.362;55.932;2023-04-06T04:07:42;99606.16;;;14.29;36.12
78932;BME280;68331;53.362;55.932;2023-04-06T04:10:09;99608.63;;;15.18;34.66
78932;BME280;68331;53.362;55.932;2023-04-06T04:12:36;99605.53;;;15.09;34.50
78932;BME280;68331;53.362;55.932;2023-04-06T04:15:02;99610.34;;;14.52;35.44
78932;BME280;68331;53.362;55.932;2023-04-06T04:17:28;99601.78;;;14.28;36.03
78932;BME280;68331;53.362;55.932;2023-04-06T04:19:54;99606.84;;;14.52;35.41
78932;BME280;68331;53.362;55.932;2023-04-06T04:22:20;99598.69;;;14.37;35.89
78932;BME280;68331;53.362;55.932;2023-04-06T04:24:46;99603.22;;;15.03;34.57
78932;BME280;68331;53.362;55.932;2023-04-06T04:27:13;99598.22;;;16.38;32.50
78932;BME280;68331;53.362;55.932;2023-04-06T04:29:40;99599.84;;;16.11;32.54
78932;BME280;68331;53.362;55.932;2023-04-06T04:32:08;99609.66;;;15.31;33.81
78932;BME280;68331;53.362;55.932;2023-04-06T04:34:35;99598.66;;;14.72;34.74
78932;BME280;68331;53.362;55.932;2023-04-06T04:37:03;99601.88;;;14.09;35.53
78932;BME280;68331;53.362;55.932;2023-04-06T04:39:46;99598.00;;;13.80;36.34
78932;BME280;68331;53.362;55.932;2023-04-06T04:42:13;99607.63;;;13.83;36.21
78932;BME280;68331;53.362;55.932;2023-04-06T04:44:45;99601.59;;;13.79;36.72
78932;BME280;68331;53.362;55.932;2023-04-06T04:47:13;99599.91;;;13.95;36.37
78932;BME280;68331;53.362;55.932;2023-04-06T04:49:43;99600.00;;;14.46;35.43
78932;BME280;68331;53.362;55.932;2023-04-06T04:52:13;99605.88;;;14.53;34.92
78932;BME280;68331;53.362;55.932;2023-04-06T04:55:03;99595.44;;;14.83;34.43
78932;BME280;68331;53.362;55.932;2023-04-06T04:57:30;99585.63;;;14.68;34.78
78932;BME280;68331;53.362;55.932;2023-04-06T04:59:56;99579.63;;;14.12;35.20
78932;BME280;68331;53.362;55.932;2023-04-06T05:02:23;99592.19;;;14.60;34.90
78932;BME280;68331;53.362;55.932;2023-04-06T05:05:02;99595.13;;;16.30;32.36
78932;BME280;68331;53.362;55.932;2023-04-06T05:07:29;99598.75;;;16.73;31.40
78932;BME280;68331;53.362;55.932;2023-04-06T05:09:57;99588.81;;;16.47;31.36
78932;BME280;68331;53.362;55.932;2023-04-06T05:12:29;99591.75;;;15.82;32.31
78932;BME280;68331;53.362;55.932;2023-04-06T05:15:21;99599.28;;;15.42;33.34
78932;BME280;68331;53.362;55.932;2023-04-06T05:17:51;99593.97;;;15.26;33.99
78932;BME280;68331;53.362;55.932;2023-04-06T05:20:22;99595.69;;;15.43;33.85
78932;BME280;68331;53.362;55.932;2023-04-06T05:22:50;99581.13;;;16.12;32.74
78932;BME280;68331;53.362;55.932;2023-04-06T05:25:16;99589.72;;;17.19;30.75
78932;BME280;68331;53.362;55.932;2023-04-06T05:27:44;99584.22;;;18.30;29.47
78932;BME280;68331;53.362;55.932;2023-04-06T05:30:28;99581.41;;;20.19;26.84
78932;BME280;68331;53.362;55.932;2023-04-06T05:32:55;99584.06;;;21.89;24.52
78932;BME280;68331;53.362;55.932;2023-04-06T05:35:23;99585.66;;;22.66;23.24
78932;BME280;68331;53.362;55.932;2023-04-06T05:37:53;99589.72;;;23.42;22.35
78932;BME280;68331;53.362;55.932;2023-04-06T05:40:23;99575.69;;;22.36;23.00
78932;BME280;68331;53.362;55.932;2023-04-06T05:42:49;99587.81;;;21.32;24.21
78932;BME280;68331;53.362;55.932;2023-04-06T05:45:17;99590.22;;;20.67;25.24
78932;BME280;68331;53.362;55.932;2023-04-06T05:47:49;99575.13;;;20.31;25.37
78932;BME280;68331;53.362;55.932;2023-04-06T05:50:26;99576.72;;;21.14;24.77
78932;BME280;68331;53.362;55.932;2023-04-06T05:52:52;99572.56;;;21.21;24.28
78932;BME280;68331;53.362;55.932;2023-04-06T05:55:21;99568.97;;;21.66;23.70
78932;BME280;68331;53.362;55.932;2023-04-06T05:57:54;99574.97;;;22.34;23.32
78932;BME280;68331;53.362;55.932;2023-04-06T06:00:21;99576.34;;;23.31;22.17
78932;BME280;68331;53.362;55.932;2023-04-06T06:02:57;99572.34;;;24.63;20.22
78932;BME280;68331;53.362;55.932;2023-04-06T06:05:28;99564.72;;;25.05;19.30
78932;BME280;68331;53.362;55.932;2023-04-06T06:07:57;99573.44;;;24.90;19.05
78932;BME280;68331;53.362;55.932;2023-04-06T06:10:23;99567.13;;;25.36;18.70
78932;BME280;68331;53.362;55.932;2023-04-06T06:12:49;99569.13;;;26.07;17.76
78932;BME280;68331;53.362;55.932;2023-04-06T06:15:16;99563.31;;;26.64;17.40
78932;BME280;68331;53.362;55.932;2023-04-06T06:17:45;99569.22;;;27.62;15.90
78932;BME280;68331;53.362;55.932;2023-04-06T06:20:12;99563.72;;;28.86;14.92
78932;BME280;68331;53.362;55.932;2023-04-06T06:22:38;99564.59;;;28.79;14.54
78932;BME280;68331;53.362;55.932;2023-04-06T06:25:09;99566.13;;;28.08;15.81
78932;BME280;68331;53.362;55.932;2023-04-06T06:27:35;99566.06;;;29.06;14.80
78932;BME280;68331;53.362;55.932;2023-04-06T06:30:02;99563.91;;;28.68;15.13
78932;BME280;68331;53.362;55.932;2023-04-06T06:32:32;99572.63;;;27.72;15.38
78932;BME280;68331;53.362;55.932;2023-04-06T06:34:59;99563.09;;;28.51;15.04
78932;BME280;68331;53.362;55.932;2023-04-06T06:37:27;99562.22;;;29.31;14.53
78932;BME280;68331;53.362;55.932;2023-04-06T06:39:53;99556.81;;;30.77;13.66
78932;BME280;68331;53.362;55.932;2023-04-06T06:42:20;99559.22;;;29.26;13.91
78932;BME280;68331;53.362;55.932;2023-04-06T06:45:07;99554.47;;;28.48;14.69
78932;BME280;68331;53.362;55.932;2023-04-06T06:47:33;99548.66;;;30.17;13.26
78932;BME280;68331;53.362;55.932;2023-04-06T06:49:59;99555.84;;;31.59;12.58
78932;BME280;68331;53.362;55.932;2023-04-06T06:52:25;99545.59;;;32.97;11.53
78932;BME280;68331;53.362;55.932;2023-04-06T06:54:51;99543.13;;;34.58;10.70
78932;BME280;68331;53.362;55.932;2023-04-06T06:57:18;99542.50;;;34.62;10.06
78932;BME280;68331;53.362;55.932;2023-04-06T06:59:46;99544.16;;;34.50;10.06
78932;BME280;68331;53.362;55.932;2023-04-06T07:02:12;99549.47;;;35.43;9.79
78932;BME280;68331;53.362;55.932;2023-04-06T07:04:38;99543.28;;;35.93;9.28
78932;BME280;68331;53.362;55.932;2023-04-06T07:07:04;99551.50;;;36.06;9.39
78932;BME280;68331;53.362;55.932;2023-04-06T07:09:30;99546.09;;;35.86;9.33
78932;BME280;68331;53.362;55.932;2023-04-06T07:11:56;99540.28;;;35.17;9.54
78932;BME280;68331;53.362;55.932;2023-04-06T07:14:22;99540.25;;;33.65;10.27
78932;BME280;68331;53.362;55.932;2023-04-06T07:16:48;99541.22;;;31.16;11.66
78932;BME280;68331;53.362;55.932;2023-04-06T07:19:15;99537.38;;;29.03;12.98
78932;BME280;68331;53.362;55.932;2023-04-06T07:21:42;99546.03;;;27.76;14.23
78932;BME280;68331;53.362;55.932;2023-04-06T07:24:07;99545.53;;;26.00;15.74
78932;BME280;68331;53.362;55.932;2023-04-06T07:26:33;99547.84;;;24.47;17.73
78932;BME280;68331;53.362;55.932;2023-04-06T07:28:59;99549.94;;;23.15;19.31
78932;BME280;68331;53.362;55.932;2023-04-06T07:31:26;99547.97;;;22.56;19.55
78932;BME280;68331;53.362;55.932;2023-04-06T07:33:52;99543.38;;;22.47;20.21
78932;BME280;68331;53.362;55.932;2023-04-06T07:36:19;99538.91;;;22.57;20.36
78932;BME280;68331;53.362;55.932;2023-04-06T07:38:45;99540.84;;;22.55;20.45
78932;BME280;68331;53.362;55.932;2023-04-06T07:41:12;99540.31;;;22.31;19.96
78932;BME280;68331;53.362;55.932;2023-04-06T07:43:38;99536.63;;;21.99;20.77
78932;BME280;68331;53.362;55.932;2023-04-06T07:46:05;99540.22;;;21.89;21.06
78932;BME280;68331;53.362;55.932;2023-04-06T07:48:31;99537.25;;;21.92;20.64
78932;BME280;68331;53.362;55.932;2023-04-06T07:51:02;99532.44;;;22.06;20.57
78932;BME280;68331;53.362;55.932;2023-04-06T07:53:29;99534.06;;;21.98;20.68
78932;BME280;68331;53.362;55.932;2023-04-06T07:55:54;99527.91;;;21.86;20.80
78932;BME280;68331;53.362;55.932;2023-04-06T07:58:21;99534.50;;;21.82;20.26
78932;BME280;68331;53.362;55.932;2023-04-06T08:03:13;99531.38;;;21.66;20.16
78932;BME280;68331;53.362;55.932;2023-04-06T08:05:38;99518.88;;;21.55;19.85
78932;BME280;68331;53.362;55.932;2023-04-06T08:08:04;99524.13;;;21.45;19.74
78932;BME280;68331;53.362;55.932;2023-04-06T08:10:30;99524.38;;;21.31;19.43
78932;BME280;68331;53.362;55.932;2023-04-06T08:12:56;99522.69;;;21.41;18.65
78932;BME280;68331;53.362;55.932;2023-04-06T08:15:22;99511.84;;;21.31;18.70
78932;BME280;68331;53.362;55.932;2023-04-06T08:17:48;99515.16;;;21.35;19.12
78932;BME280;68331;53.362;55.932;2023-04-06T08:20:14;99510.63;;;21.35;18.41
78932;BME280;68331;53.362;55.932;2023-04-06T08:22:40;99517.34;;;21.07;18.66
78932;BME280;68331;53.362;55.932;2023-04-06T08:25:06;99503.81;;;20.98;19.16
78932;BME280;68331;53.362;55.932;2023-04-06T08:27:32;99510.25;;;21.18;19.19
78932;BME280;68331;53.362;55.932;2023-04-06T08:29:58;99509.78;;;21.35;19.48
78932;BME280;68331;53.362;55.932;2023-04-06T08:32:25;99502.19;;;21.40;20.30
78932;BME280;68331;53.362;55.932;2023-04-06T08:34:54;99504.34;;;21.57;19.40
78932;BME280;68331;53.362;55.932;2023-04-06T08:37:21;99501.72;;;21.35;19.13
78932;BME280;68331;53.362;55.932;2023-04-06T08:39:47;99502.47;;;20.92;19.61
78932;BME280;68331;53.362;55.932;2023-04-06T08:42:18;99502.72;;;21.00;19.62
78932;BME280;68331;53.362;55.932;2023-04-06T08:44:45;99509.50;;;21.27;19.68
78932;BME280;68331;53.362;55.932;2023-04-06T08:47:12;99508.28;;;21.31;19.43
78932;BME280;68331;53.362;55.932;2023-04-06T08:49:38;99510.50;;;21.14;19.22
78932;BME280;68331;53.362;55.932;2023-04-06T08:52:07;99498.31;;;21.10;19.33
78932;BME280;68331;53.362;55.932;2023-04-06T08:54:34;99495.34;;;21.25;19.25
78932;BME280;68331;53.362;55.932;2023-04-06T08:57:02;99494.13;;;21.40;19.19
78932;BME280;68331;53.362;55.932;2023-04-06T08:59:28;99499.72;;;21.48;19.34
78932;BME280;68331;53.362;55.932;2023-04-06T09:01:55;99496.19;;;21.48;19.05
78932;BME280;68331;53.362;55.932;2023-04-06T09:04:21;99493.63;;;21.46;18.88
78932;BME280;68331;53.362;55.932;2023-04-06T09:06:47;99488.56;;;21.64;19.15
78932;BME280;68331;53.362;55.932;2023-04-06T09:09:13;99485.66;;;21.88;18.88
78932;BME280;68331;53.362;55.932;2023-04-06T09:11:46;99484.47;;;21.81;18.95
78932;BME280;68331;53.362;55.932;2023-04-06T09:14:13;99484.69;;;21.89;18.92
78932;BME280;68331;53.362;55.932;2023-04-06T09:16:42;99487.81;;;21.94;18.57
78932;BME280;68331;53.362;55.932;2023-04-06T09:19:09;99482.38;;;21.85;18.31
78932;BME280;68331;53.362;55.932;2023-04-06T09:21:35;99486.22;;;21.71;18.76
78932;BME280;68331;53.362;55.932;2023-04-06T09:24:03;99480.00;;;21.70;18.81
78932;BME280;68331;53.362;55.932;2023-04-06T09:26:29;99486.41;;;21.79;18.99
78932;BME280;68331;53.362;55.932;2023-04-06T09:28:58;99487.47;;;21.67;18.73
78932;BME280;68331;53.362;55.932;2023-04-06T09:31:27;99489.00;;;21.48;18.60
78932;BME280;68331;53.362;55.932;2023-04-06T09:33:53;99488.25;;;21.46;18.58
78932;BME280;68331;53.362;55.932;2023-04-06T09:36:29;99480.38;;;21.22;18.83
78932;BME280;68331;53.362;55.932;2023-04-06T09:38:58;99488.81;;;21.06;19.10
78932;BME280;68331;53.362;55.932;2023-04-06T09:41:35;99474.69;;;21.04;19.23
78932;BME280;68331;53.362;55.932;2023-04-06T09:44:02;99481.47;;;21.20;19.05
78932;BME280;68331;53.362;55.932;2023-04-06T09:46:31;99477.78;;;21.32;19.04
78932;BME280;68331;53.362;55.932;2023-04-06T09:49:00;99467.19;;;21.42;18.84
78932;BME280;68331;53.362;55.932;2023-04-06T09:51:30;99477.53;;;21.46;19.46
78932;BME280;68331;53.362;55.932;2023-04-06T09:53:57;99473.34;;;21.53;18.98
78932;BME280;68331;53.362;55.932;2023-04-06T09:56:34;99473.78;;;21.70;18.92
78932;BME280;68331;53.362;55.932;2023-04-06T09:59:09;99467.16;;;21.74;19.04
78932;BME280;68331;53.362;55.932;2023-04-06T10:01:39;99472.66;;;21.72;19.01
78932;BME280;68331;53.362;55.932;2023-04-06T10:04:17;99470.47;;;21.66;19.42
78932;BME280;68331;53.362;55.932;2023-04-06T10:06:46;99468.94;;;21.64;19.25
78932;BME280;68331;53.362;55.932;2023-04-06T10:09:18;99472.13;;;21.57;19.23
78932;BME280;68331;53.362;55.932;2023-04-06T10:11:45;99469.56;;;21.56;18.85
78932;BME280;68331;53.362;55.932;2023-04-06T10:14:11;99473.16;;;21.45;18.66
78932;BME280;68331;53.362;55.932;2023-04-06T10:16:38;99469.41;;;21.25;18.62
78932;BME280;68331;53.362;55.932;2023-04-06T10:19:14;99456.31;;;21.32;19.07
78932;BME280;68331;53.362;55.932;2023-04-06T10:21:45;99461.91;;;21.51;18.81
78932;BME280;68331;53.362;55.932;2023-04-06T10:24:14;99453.75;;;21.42;18.67
78932;BME280;68331;53.362;55.932;2023-04-06T10:26:40;99456.53;;;21.51;18.32
78932;BME280;68331;53.362;55.932;2023-04-06T10:29:06;99458.72;;;21.57;18.63
78932;BME280;68331;53.362;55.932;2023-04-06T10:31:32;99457.19;;;21.65;18.95
78932;BME280;68331;53.362;55.932;2023-04-06T10:34:02;99453.34;;;21.57;19.12
78932;BME280;68331;53.362;55.932;2023-04-06T10:36:32;99456.28;;;21.54;18.99
78932;BME280;68331;53.362;55.932;2023-04-06T10:39:01;99450.44;;;21.49;18.87
78932;BME280;68331;53.362;55.932;2023-04-06T10:41:41;99453.09;;;21.61;18.58
78932;BME280;68331;53.362;55.932;2023-04-06T10:44:17;99447.22;;;21.55;18.65
78932;BME280;68331;53.362;55.932;2023-04-06T10:46:59;99450.91;;;21.54;18.73
78932;BME280;68331;53.362;55.932;2023-04-06T10:49:28;99454.28;;;21.56;18.68
78932;BME280;68331;53.362;55.932;2023-04-06T10:51:55;99454.19;;;21.58;18.27
78932;BME280;68331;53.362;55.932;2023-04-06T10:54:24;99455.34;;;21.44;18.00
78932;BME280;68331;53.362;55.932;2023-04-06T10:56:51;99451.78;;;21.44;18.04
78932;BME280;68331;53.362;55.932;2023-04-06T10:59:20;99447.88;;;21.48;17.90
78932;BME280;68331;53.362;55.932;2023-04-06T11:01:47;99444.69;;;21.54;17.82
78932;BME280;68331;53.362;55.932;2023-04-06T11:04:16;99443.13;;;21.40;18.01
78932;BME280;68331;53.362;55.932;2023-04-06T11:06:47;99445.44;;;20.67;18.71
78932;BME280;68331;53.362;55.932;2023-04-06T11:09:27;99447.97;;;20.24;19.35
78932;BME280;68331;53.362;55.932;2023-04-06T11:11:54;99450.97;;;19.97;19.61
78932;BME280;68331;53.362;55.932;2023-04-06T11:14:21;99448.97;;;19.77;19.81
78932;BME280;68331;53.362;55.932;2023-04-06T11:16:48;99447.16;;;19.77;19.84
78932;BME280;68331;53.362;55.932;2023-04-06T11:19:15;99457.38;;;19.83;19.88
78932;BME280;68331;53.362;55.932;2023-04-06T11:24:12;99452.88;;;19.72;20.62
78932;BME280;68331;53.362;55.932;2023-04-06T11:26:43;99442.91;;;19.50;20.89
78932;BME280;68331;53.362;55.932;2023-04-06T11:29:10;99460.72;;;19.39;20.87
78932;BME280;68331;53.362;55.932;2023-04-06T11:31:47;99454.44;;;19.27;20.93
78932;BME280;68331;53.362;55.932;2023-04-06T11:34:17;99454.50;;;19.14;21.50
78932;BME280;68331;53.362;55.932;2023-04-06T11:36:45;99454.66;;;19.00;22.10
78932;BME280;68331;53.362;55.932;2023-04-06T11:39:12;99465.75;;;18.83;23.22
78932;BME280;68331;53.362;55.932;2023-04-06T11:41:39;99454.59;;;18.63;23.31
78932;BME280;68331;53.362;55.932;2023-04-06T11:44:05;99467.66;;;18.55;23.65
78932;BME280;68331;53.362;55.932;2023-04-06T11:46:32;99462.22;;;18.44;23.74
78932;BME280;68331;53.362;55.932;2023-04-06T11:48:59;99462.97;;;18.33;23.67
78932;BME280;68331;53.362;55.932;2023-04-06T11:51:26;99469.72;;;18.26;23.88
78932;BME280;68331;53.362;55.932;2023-04-06T11:53:52;99465.66;;;18.20;23.91
78932;BME280;68331;53.362;55.932;2023-04-06T11:56:26;99467.34;;;18.21;24.03
78932;BME280;68331;53.362;55.932;2023-04-06T11:58:58;99467.56;;;18.18;24.06
78932;BME280;68331;53.362;55.932;2023-04-06T12:01:25;99465.75;;;18.19;23.61
78932;BME280;68331;53.362;55.932;2023-04-06T12:03:52;99468.66;;;18.28;23.48
78932;BME280;68331;53.362;55.932;2023-04-06T12:06:18;99473.53;;;18.47;23.26
78932;BME280;68331;53.362;55.932;2023-04-06T12:08:44;99473.75;;;18.70;22.88
78932;BME280;68331;53.362;55.932;2023-04-06T12:11:22;99465.06;;;18.66;22.83
78932;BME280;68331;53.362;55.932;2023-04-06T12:13:48;99473.63;;;18.84;22.76
78932;BME280;68331;53.362;55.932;2023-04-06T12:16:14;99469.72;;;19.01;22.68
78932;BME280;68331;53.362;55.932;2023-04-06T12:18:40;99469.19;;;19.09;22.13
78932;BME280;68331;53.362;55.932;2023-04-06T12:21:06;99477.25;;;19.20;21.98
78932;BME280;68331;53.362;55.932;2023-04-06T12:23:32;99473.75;;;19.19;21.89
78932;BME280;68331;53.362;55.932;2023-04-06T12:25:58;99486.19;;;19.08;21.98
78932;BME280;68331;53.362;55.932;2023-04-06T12:28:24;99481.00;;;18.93;21.67
78932;BME280;68331;53.362;55.932;2023-04-06T12:30:52;99477.28;;;18.83;22.09
78932;BME280;68331;53.362;55.932;2023-04-06T12:33:19;99479.72;;;18.86;22.20
78932;BME280;68331;53.362;55.932;2023-04-06T12:35:45;99483.25;;;18.87;22.12
78932;BME280;68331;53.362;55.932;2023-04-06T12:38:11;99476.94;;;18.88;22.31
78932;BME280;68331;53.362;55.932;2023-04-06T12:40:38;99481.44;;;18.87;22.25
78932;BME280;68331;53.362;55.932;2023-04-06T12:43:04;99479.97;;;18.83;22.18
78932;BME280;68331;53.362;55.932;2023-04-06T12:45:31;99484.66;;;18.79;22.37
78932;BME280;68331;53.362;55.932;2023-04-06T12:47:58;99476.88;;;18.76;22.01
78932;BME280;68331;53.362;55.932;2023-04-06T12:50:24;99477.59;;;18.78;21.88
78932;BME280;68331;53.362;55.932;2023-04-06T12:52:50;99473.09;;;18.79;22.15
78932;BME280;68331;53.362;55.932;2023-04-06T12:55:16;99479.81;;;18.85;22.60
78932;BME280;68331;53.362;55.932;2023-04-06T12:57:43;99479.72;;;18.86;22.27
78932;BME280;68331;53.362;55.932;2023-04-06T13:00:09;99480.69;;;18.85;22.32
78932;BME280;68331;53.362;55.932;2023-04-06T13:02:35;99470.44;;;18.79;22.15
78932;BME280;68331;53.362;55.932;2023-04-06T13:05:01;99480.47;;;18.75;22.30